ΕΜΥ, Εθνική Μετεωρολογική Υπηρεσία - Δελτία Καιρού, Προγνώσεις

ΑΕΡΟΝΑΥΤΙΛΙΑ

GREEK AIRPORTS CODES

LGLE 221230Z AUTO 13006KT 080V150 //// // ////// 22/13 Q1017 RE//=

EUROPEAN AIRPORTS CODES

LFPO 221230Z 04013KT 9999 FEW046TCU BKN058 09/M01 Q1024TEMPO 4000 -SHRA SCT030TCU=